sensor_id;sensor_type;location;lat;lon;timestamp;pressure;altitude;pressure_sealevel;temperature;humidity
4415;BME280;2220;42.670;23.398;2022-12-17T00:00:48;93363.78;;;8.66;100.00
4415;BME280;2220;42.670;23.398;2022-12-17T00:03:33;93325.25;;;8.74;100.00
4415;BME280;2220;42.670;23.398;2022-12-17T00:06:17;93378.13;;;8.59;100.00
4415;BME280;2220;42.670;23.398;2022-12-17T00:09:01;93328.31;;;8.57;100.00
4415;BME280;2220;42.670;23.398;2022-12-17T00:11:45;93397.28;;;8.63;100.00
4415;BME280;2220;42.670;23.398;2022-12-17T00:14:29;93408.59;;;8.72;100.00
4415;BME280;2220;42.670;23.398;2022-12-17T00:17:13;93400.97;;;8.57;100.00
4415;BME280;2220;42.670;23.398;2022-12-17T00:19:56;93391.47;;;8.71;100.00
4415;BME280;2220;42.670;23.398;2022-12-17T00:22:40;93395.75;;;8.86;100.00
4415;BME280;2220;42.670;23.398;2022-12-17T00:25:24;93390.22;;;8.92;100.00
4415;BME280;2220;42.670;23.398;2022-12-17T00:28:12;93370.06;;;8.84;100.00
4415;BME280;2220;42.670;23.398;2022-12-17T00:30:56;93393.47;;;8.79;100.00
4415;BME280;2220;42.670;23.398;2022-12-17T00:33:40;93351.34;;;8.63;100.00
4415;BME280;2220;42.670;23.398;2022-12-17T00:36:24;93392.84;;;8.63;100.00
4415;BME280;2220;42.670;23.398;2022-12-17T00:39:08;93348.00;;;8.58;100.00
4415;BME280;2220;42.670;23.398;2022-12-17T00:41:52;93393.63;;;8.64;100.00
4415;BME280;2220;42.670;23.398;2022-12-17T00:44:36;93358.47;;;8.77;100.00
4415;BME280;2220;42.670;23.398;2022-12-17T00:47:20;93390.72;;;8.71;100.00
4415;BME280;2220;42.670;23.398;2022-12-17T00:50:05;93361.94;;;8.67;100.00
4415;BME280;2220;42.670;23.398;2022-12-17T00:52:51;93374.19;;;8.61;100.00
4415;BME280;2220;42.670;23.398;2022-12-17T00:55:35;93370.06;;;8.60;100.00
4415;BME280;2220;42.670;23.398;2022-12-17T00:58:19;93362.19;;;8.65;100.00
4415;BME280;2220;42.670;23.398;2022-12-17T01:01:03;93381.19;;;8.37;100.00
4415;BME280;2220;42.670;23.398;2022-12-17T01:03:47;93390.81;;;8.36;100.00
4415;BME280;2220;42.670;23.398;2022-12-17T01:06:31;93401.91;;;8.66;100.00
4415;BME280;2220;42.670;23.398;2022-12-17T01:09:17;93383.69;;;8.95;100.00
4415;BME280;2220;42.670;23.398;2022-12-17T01:12:01;93396.91;;;8.75;100.00
4415;BME280;2220;42.670;23.398;2022-12-17T01:14:45;93384.03;;;8.64;100.00
4415;BME280;2220;42.670;23.398;2022-12-17T01:17:29;93412.47;;;8.51;100.00
4415;BME280;2220;42.670;23.398;2022-12-17T01:20:13;93406.25;;;8.76;100.00
4415;BME280;2220;42.670;23.398;2022-12-17T01:22:56;93404.94;;;8.73;100.00
4415;BME280;2220;42.670;23.398;2022-12-17T01:25:40;93417.28;;;8.62;100.00
4415;BME280;2220;42.670;23.398;2022-12-17T01:28:25;93406.16;;;8.81;100.00
4415;BME280;2220;42.670;23.398;2022-12-17T01:31:10;93422.31;;;9.02;100.00
4415;BME280;2220;42.670;23.398;2022-12-17T01:33:54;93393.59;;;8.69;100.00
4415;BME280;2220;42.670;23.398;2022-12-17T01:36:38;93423.50;;;8.61;100.00
4415;BME280;2220;42.670;23.398;2022-12-17T01:39:22;93427.00;;;8.76;100.00
4415;BME280;2220;42.670;23.398;2022-12-17T01:42:11;93376.84;;;8.56;100.00
4415;BME280;2220;42.670;23.398;2022-12-17T01:44:56;93454.31;;;8.44;100.00
4415;BME280;2220;42.670;23.398;2022-12-17T01:50:27;93389.59;;;8.53;100.00
4415;BME280;2220;42.670;23.398;2022-12-17T01:53:11;93452.00;;;8.32;100.00
4415;BME280;2220;42.670;23.398;2022-12-17T01:55:57;93416.25;;;8.29;100.00
4415;BME280;2220;42.670;23.398;2022-12-17T01:58:43;93457.47;;;8.36;100.00
4415;BME280;2220;42.670;23.398;2022-12-17T02:01:27;93421.72;;;8.28;100.00
4415;BME280;2220;42.670;23.398;2022-12-17T02:04:11;93449.50;;;8.22;100.00
4415;BME280;2220;42.670;23.398;2022-12-17T02:13:04;93403.34;;;8.53;100.00
4415;BME280;2220;42.670;23.398;2022-12-17T02:15:53;93450.38;;;8.47;100.00
4415;BME280;2220;42.670;23.398;2022-12-17T02:18:50;93432.38;;;8.55;100.00
4415;BME280;2220;42.670;23.398;2022-12-17T02:21:38;93448.84;;;8.46;100.00
4415;BME280;2220;42.670;23.398;2022-12-17T02:27:08;93424.09;;;8.53;100.00
4415;BME280;2220;42.670;23.398;2022-12-17T02:29:55;93445.84;;;8.57;100.00
4415;BME280;2220;42.670;23.398;2022-12-17T02:32:43;93420.25;;;8.51;100.00
4415;BME280;2220;42.670;23.398;2022-12-17T02:35:39;93418.56;;;8.36;100.00
4415;BME280;2220;42.670;23.398;2022-12-17T02:38:27;93412.31;;;8.37;100.00
4415;BME280;2220;42.670;23.398;2022-12-17T02:41:27;93407.91;;;8.32;100.00
4415;BME280;2220;42.670;23.398;2022-12-17T02:44:14;93435.78;;;8.22;100.00
4415;BME280;2220;42.670;23.398;2022-12-17T02:47:02;93381.31;;;8.22;100.00
4415;BME280;2220;42.670;23.398;2022-12-17T02:49:47;93443.59;;;8.17;100.00
4415;BME280;2220;42.670;23.398;2022-12-17T02:52:32;93392.16;;;8.24;100.00
4415;BME280;2220;42.670;23.398;2022-12-17T02:55:29;93434.63;;;8.33;100.00
4415;BME280;2220;42.670;23.398;2022-12-17T02:58:13;93410.22;;;8.34;100.00
4415;BME280;2220;42.670;23.398;2022-12-17T03:00:57;93404.75;;;8.40;100.00
4415;BME280;2220;42.670;23.398;2022-12-17T03:03:41;93395.06;;;8.51;100.00
4415;BME280;2220;42.670;23.398;2022-12-17T03:06:25;93400.44;;;8.60;100.00
4415;BME280;2220;42.670;23.398;2022-12-17T03:09:09;93381.94;;;8.43;100.00
4415;BME280;2220;42.670;23.398;2022-12-17T03:11:53;93380.03;;;8.48;100.00
4415;BME280;2220;42.670;23.398;2022-12-17T03:14:37;93394.38;;;8.40;100.00
4415;BME280;2220;42.670;23.398;2022-12-17T03:17:21;93383.19;;;8.45;100.00
4415;BME280;2220;42.670;23.398;2022-12-17T03:20:05;93389.13;;;8.51;100.00
4415;BME280;2220;42.670;23.398;2022-12-17T03:22:49;93362.41;;;8.50;100.00
4415;BME280;2220;42.670;23.398;2022-12-17T03:25:33;93364.91;;;8.55;100.00
4415;BME280;2220;42.670;23.398;2022-12-17T03:28:17;93367.38;;;8.41;100.00
4415;BME280;2220;42.670;23.398;2022-12-17T03:31:01;93362.00;;;8.33;100.00
4415;BME280;2220;42.670;23.398;2022-12-17T03:33:45;93381.13;;;8.13;100.00
4415;BME280;2220;42.670;23.398;2022-12-17T03:36:29;93385.44;;;8.23;100.00
4415;BME280;2220;42.670;23.398;2022-12-17T03:39:13;93397.75;;;8.07;100.00
4415;BME280;2220;42.670;23.398;2022-12-17T03:41:57;93388.53;;;7.96;100.00
4415;BME280;2220;42.670;23.398;2022-12-17T03:44:41;93386.63;;;8.06;100.00
4415;BME280;2220;42.670;23.398;2022-12-17T03:47:25;93403.59;;;8.23;100.00
4415;BME280;2220;42.670;23.398;2022-12-17T03:50:09;93408.59;;;8.14;100.00
4415;BME280;2220;42.670;23.398;2022-12-17T03:52:53;93428.13;;;8.01;100.00
4415;BME280;2220;42.670;23.398;2022-12-17T03:55:37;93389.44;;;8.10;100.00
4415;BME280;2220;42.670;23.398;2022-12-17T03:58:21;93411.28;;;8.38;100.00
4415;BME280;2220;42.670;23.398;2022-12-17T04:01:05;93413.84;;;8.43;100.00
4415;BME280;2220;42.670;23.398;2022-12-17T04:03:49;93396.69;;;8.42;100.00
4415;BME280;2220;42.670;23.398;2022-12-17T04:06:32;93420.88;;;8.37;100.00
4415;BME280;2220;42.670;23.398;2022-12-17T04:09:16;93397.06;;;8.25;100.00
4415;BME280;2220;42.670;23.398;2022-12-17T04:12:00;93414.53;;;8.20;100.00
4415;BME280;2220;42.670;23.398;2022-12-17T04:14:44;93421.16;;;8.36;100.00
4415;BME280;2220;42.670;23.398;2022-12-17T04:17:28;93404.28;;;8.33;100.00
4415;BME280;2220;42.670;23.398;2022-12-17T04:20:12;93410.66;;;8.51;100.00
4415;BME280;2220;42.670;23.398;2022-12-17T04:22:56;93424.31;;;8.57;100.00
4415;BME280;2220;42.670;23.398;2022-12-17T04:25:40;93408.47;;;8.29;100.00
4415;BME280;2220;42.670;23.398;2022-12-17T04:28:24;93426.47;;;8.50;100.00
4415;BME280;2220;42.670;23.398;2022-12-17T04:31:08;93429.06;;;8.50;100.00
4415;BME280;2220;42.670;23.398;2022-12-17T04:33:52;93407.97;;;8.27;100.00
4415;BME280;2220;42.670;23.398;2022-12-17T04:36:36;93435.75;;;8.27;100.00
4415;BME280;2220;42.670;23.398;2022-12-17T04:39:20;93430.38;;;8.18;100.00
4415;BME280;2220;42.670;23.398;2022-12-17T04:42:04;93433.72;;;8.53;100.00
4415;BME280;2220;42.670;23.398;2022-12-17T04:44:47;93404.59;;;8.85;100.00
4415;BME280;2220;42.670;23.398;2022-12-17T04:47:32;93433.31;;;8.93;100.00
4415;BME280;2220;42.670;23.398;2022-12-17T04:50:16;93417.16;;;8.73;100.00
4415;BME280;2220;42.670;23.398;2022-12-17T04:53:01;93432.84;;;8.62;100.00
4415;BME280;2220;42.670;23.398;2022-12-17T04:55:45;93429.75;;;8.60;100.00
4415;BME280;2220;42.670;23.398;2022-12-17T04:58:29;93434.03;;;8.46;100.00
4415;BME280;2220;42.670;23.398;2022-12-17T05:01:13;93427.31;;;8.45;100.00
4415;BME280;2220;42.670;23.398;2022-12-17T05:03:57;93407.78;;;8.53;100.00
4415;BME280;2220;42.670;23.398;2022-12-17T05:06:41;93446.69;;;8.53;100.00
4415;BME280;2220;42.670;23.398;2022-12-17T05:09:24;93460.53;;;8.43;100.00
4415;BME280;2220;42.670;23.398;2022-12-17T05:12:08;93477.13;;;8.42;100.00
4415;BME280;2220;42.670;23.398;2022-12-17T05:14:52;93479.72;;;8.42;100.00
4415;BME280;2220;42.670;23.398;2022-12-17T05:17:36;93482.66;;;8.64;100.00
4415;BME280;2220;42.670;23.398;2022-12-17T05:20:20;93493.91;;;8.84;100.00
4415;BME280;2220;42.670;23.398;2022-12-17T05:23:05;93484.78;;;8.86;100.00
4415;BME280;2220;42.670;23.398;2022-12-17T05:26:04;93491.78;;;8.91;100.00
4415;BME280;2220;42.670;23.398;2022-12-17T05:28:48;93480.09;;;8.88;100.00
4415;BME280;2220;42.670;23.398;2022-12-17T05:31:32;93454.25;;;8.78;100.00
4415;BME280;2220;42.670;23.398;2022-12-17T05:34:16;93451.31;;;8.85;100.00
4415;BME280;2220;42.670;23.398;2022-12-17T05:37:00;93444.03;;;8.87;100.00
4415;BME280;2220;42.670;23.398;2022-12-17T05:39:44;93424.19;;;8.96;100.00
4415;BME280;2220;42.670;23.398;2022-12-17T05:42:28;93423.13;;;8.97;100.00
4415;BME280;2220;42.670;23.398;2022-12-17T05:45:12;93455.94;;;8.88;100.00
4415;BME280;2220;42.670;23.398;2022-12-17T05:47:57;93474.56;;;8.95;100.00
4415;BME280;2220;42.670;23.398;2022-12-17T05:50:41;93416.41;;;8.96;100.00
4415;BME280;2220;42.670;23.398;2022-12-17T05:53:25;93402.75;;;9.09;100.00
4415;BME280;2220;42.670;23.398;2022-12-17T05:56:09;93438.66;;;9.02;100.00
4415;BME280;2220;42.670;23.398;2022-12-17T05:58:53;93439.22;;;8.99;100.00
4415;BME280;2220;42.670;23.398;2022-12-17T06:01:36;93428.72;;;9.09;100.00
4415;BME280;2220;42.670;23.398;2022-12-17T06:04:20;93388.75;;;9.05;100.00
4415;BME280;2220;42.670;23.398;2022-12-17T06:07:04;93401.69;;;9.10;100.00
4415;BME280;2220;42.670;23.398;2022-12-17T06:09:48;93426.56;;;9.16;100.00
4415;BME280;2220;42.670;23.398;2022-12-17T06:12:32;93415.19;;;8.88;100.00
4415;BME280;2220;42.670;23.398;2022-12-17T06:15:16;93454.97;;;9.08;100.00
4415;BME280;2220;42.670;23.398;2022-12-17T06:18:00;93372.41;;;9.05;100.00
4415;BME280;2220;42.670;23.398;2022-12-17T06:20:44;93413.88;;;8.91;100.00
4415;BME280;2220;42.670;23.398;2022-12-17T06:23:28;93420.00;;;8.76;100.00
4415;BME280;2220;42.670;23.398;2022-12-17T06:26:12;93442.47;;;8.86;100.00
4415;BME280;2220;42.670;23.398;2022-12-17T06:28:56;93462.31;;;9.01;100.00
4415;BME280;2220;42.670;23.398;2022-12-17T06:31:40;93465.56;;;9.11;100.00
4415;BME280;2220;42.670;23.398;2022-12-17T06:34:24;93488.78;;;9.03;100.00
4415;BME280;2220;42.670;23.398;2022-12-17T06:37:08;93487.97;;;9.07;100.00
4415;BME280;2220;42.670;23.398;2022-12-17T06:39:52;93432.75;;;8.96;100.00
4415;BME280;2220;42.670;23.398;2022-12-17T06:42:36;93489.22;;;9.10;100.00
4415;BME280;2220;42.670;23.398;2022-12-17T06:45:20;93478.13;;;9.28;100.00
4415;BME280;2220;42.670;23.398;2022-12-17T06:48:06;93452.72;;;9.44;100.00
4415;BME280;2220;42.670;23.398;2022-12-17T06:50:55;93486.47;;;9.49;100.00
4415;BME280;2220;42.670;23.398;2022-12-17T06:53:40;93465.28;;;9.37;100.00
4415;BME280;2220;42.670;23.398;2022-12-17T06:56:25;93462.66;;;9.61;100.00
4415;BME280;2220;42.670;23.398;2022-12-17T06:59:09;93438.00;;;9.58;100.00
4415;BME280;2220;42.670;23.398;2022-12-17T07:01:53;93462.31;;;9.67;100.00
4415;BME280;2220;42.670;23.398;2022-12-17T07:04:37;93477.84;;;9.72;100.00
4415;BME280;2220;42.670;23.398;2022-12-17T07:07:21;93501.00;;;9.50;100.00
4415;BME280;2220;42.670;23.398;2022-12-17T07:10:06;93530.06;;;9.52;100.00
4415;BME280;2220;42.670;23.398;2022-12-17T07:12:50;93589.34;;;9.26;100.00
4415;BME280;2220;42.670;23.398;2022-12-17T07:15:34;93579.00;;;9.45;100.00
4415;BME280;2220;42.670;23.398;2022-12-17T07:18:18;93618.75;;;9.74;100.00
4415;BME280;2220;42.670;23.398;2022-12-17T07:21:02;93621.19;;;9.90;100.00
4415;BME280;2220;42.670;23.398;2022-12-17T07:23:45;93628.38;;;9.98;100.00
4415;BME280;2220;42.670;23.398;2022-12-17T07:26:29;93608.13;;;9.95;100.00
4415;BME280;2220;42.670;23.398;2022-12-17T07:29:13;93577.41;;;9.97;100.00
4415;BME280;2220;42.670;23.398;2022-12-17T07:31:57;93613.69;;;9.83;100.00
4415;BME280;2220;42.670;23.398;2022-12-17T07:34:41;93576.81;;;10.00;100.00
4415;BME280;2220;42.670;23.398;2022-12-17T07:37:25;93557.72;;;10.09;100.00
4415;BME280;2220;42.670;23.398;2022-12-17T07:40:09;93592.72;;;10.22;100.00
4415;BME280;2220;42.670;23.398;2022-12-17T07:42:53;93605.09;;;10.30;100.00
4415;BME280;2220;42.670;23.398;2022-12-17T07:45:37;93596.63;;;10.20;100.00
4415;BME280;2220;42.670;23.398;2022-12-17T07:48:21;93594.19;;;10.28;100.00
4415;BME280;2220;42.670;23.398;2022-12-17T07:51:05;93584.31;;;10.25;100.00
4415;BME280;2220;42.670;23.398;2022-12-17T07:53:49;93595.56;;;10.21;100.00
4415;BME280;2220;42.670;23.398;2022-12-17T07:56:33;93600.28;;;10.19;100.00
4415;BME280;2220;42.670;23.398;2022-12-17T07:59:16;93574.53;;;10.17;100.00
4415;BME280;2220;42.670;23.398;2022-12-17T08:02:00;93541.84;;;10.11;100.00
4415;BME280;2220;42.670;23.398;2022-12-17T08:04:44;93554.84;;;10.11;100.00
4415;BME280;2220;42.670;23.398;2022-12-17T08:07:28;93588.03;;;10.19;100.00
4415;BME280;2220;42.670;23.398;2022-12-17T08:10:12;93612.56;;;10.37;100.00
4415;BME280;2220;42.670;23.398;2022-12-17T08:12:58;93591.09;;;10.45;100.00
4415;BME280;2220;42.670;23.398;2022-12-17T08:15:43;93529.88;;;10.48;100.00
4415;BME280;2220;42.670;23.398;2022-12-17T08:18:27;93509.97;;;11.31;100.00
4415;BME280;2220;42.670;23.398;2022-12-17T08:21:11;93549.03;;;11.63;100.00
4415;BME280;2220;42.670;23.398;2022-12-17T08:23:55;93511.56;;;12.09;100.00
4415;BME280;2220;42.670;23.398;2022-12-17T08:26:39;93482.19;;;12.62;100.00
4415;BME280;2220;42.670;23.398;2022-12-17T08:29:23;93435.50;;;13.00;100.00
4415;BME280;2220;42.670;23.398;2022-12-17T08:32:07;93397.91;;;13.19;100.00
4415;BME280;2220;42.670;23.398;2022-12-17T08:34:51;93358.09;;;12.82;100.00
4415;BME280;2220;42.670;23.398;2022-12-17T08:37:35;93321.38;;;12.78;100.00
4415;BME280;2220;42.670;23.398;2022-12-17T08:40:19;93303.59;;;12.98;100.00
4415;BME280;2220;42.670;23.398;2022-12-17T08:43:03;93308.19;;;12.92;100.00
4415;BME280;2220;42.670;23.398;2022-12-17T08:45:48;93292.44;;;13.32;100.00
4415;BME280;2220;42.670;23.398;2022-12-17T08:48:31;93310.88;;;13.27;100.00
4415;BME280;2220;42.670;23.398;2022-12-17T08:51:15;93347.97;;;13.46;100.00
4415;BME280;2220;42.670;23.398;2022-12-17T08:53:59;93394.28;;;13.46;100.00
4415;BME280;2220;42.670;23.398;2022-12-17T08:56:43;93411.78;;;13.28;100.00
4415;BME280;2220;42.670;23.398;2022-12-17T08:59:27;93410.25;;;13.35;100.00
4415;BME280;2220;42.670;23.398;2022-12-17T09:02:11;93443.22;;;13.45;100.00
4415;BME280;2220;42.670;23.398;2022-12-17T09:04:55;93377.06;;;13.44;100.00
4415;BME280;2220;42.670;23.398;2022-12-17T09:07:39;93452.00;;;13.49;100.00
4415;BME280;2220;42.670;23.398;2022-12-17T09:10:23;93437.38;;;13.39;100.00
4415;BME280;2220;42.670;23.398;2022-12-17T09:13:07;93463.22;;;13.41;100.00
4415;BME280;2220;42.670;23.398;2022-12-17T09:15:55;93506.38;;;13.30;100.00
4415;BME280;2220;42.670;23.398;2022-12-17T09:18:39;93510.25;;;13.32;100.00
4415;BME280;2220;42.670;23.398;2022-12-17T09:21:26;93516.50;;;13.23;100.00
4415;BME280;2220;42.670;23.398;2022-12-17T09:24:11;93532.19;;;13.23;100.00
4415;BME280;2220;42.670;23.398;2022-12-17T09:26:55;93565.16;;;13.10;100.00
4415;BME280;2220;42.670;23.398;2022-12-17T09:29:40;93570.34;;;13.01;100.00
4415;BME280;2220;42.670;23.398;2022-12-17T09:32:23;93619.00;;;13.11;100.00
4415;BME280;2220;42.670;23.398;2022-12-17T09:35:07;93610.78;;;13.04;100.00
4415;BME280;2220;42.670;23.398;2022-12-17T09:37:52;93650.34;;;13.11;100.00
4415;BME280;2220;42.670;23.398;2022-12-17T09:40:38;93655.28;;;13.12;100.00
4415;BME280;2220;42.670;23.398;2022-12-17T09:49:15;93650.97;;;13.08;100.00
4415;BME280;2220;42.670;23.398;2022-12-17T09:52:02;93656.19;;;13.08;100.00
4415;BME280;2220;42.670;23.398;2022-12-17T09:54:48;93656.66;;;13.10;100.00
4415;BME280;2220;42.670;23.398;2022-12-17T09:57:35;93627.13;;;13.09;100.00
4415;BME280;2220;42.670;23.398;2022-12-17T10:00:22;93627.91;;;13.10;100.00
4415;BME280;2220;42.670;23.398;2022-12-17T10:03:14;93650.44;;;12.61;100.00
4415;BME280;2220;42.670;23.398;2022-12-17T10:06:03;93675.31;;;12.31;100.00
4415;BME280;2220;42.670;23.398;2022-12-17T10:08:52;93685.28;;;12.15;100.00
4415;BME280;2220;42.670;23.398;2022-12-17T10:11:38;93674.56;;;11.57;100.00
4415;BME280;2220;42.670;23.398;2022-12-17T10:14:24;93723.34;;;11.56;100.00
4415;BME280;2220;42.670;23.398;2022-12-17T10:19:58;93808.34;;;11.57;100.00
4415;BME280;2220;42.670;23.398;2022-12-17T10:22:46;93814.53;;;11.61;100.00
4415;BME280;2220;42.670;23.398;2022-12-17T10:25:32;93793.03;;;11.88;100.00
4415;BME280;2220;42.670;23.398;2022-12-17T10:28:19;93796.66;;;12.06;100.00
4415;BME280;2220;42.670;23.398;2022-12-17T10:31:09;93798.66;;;12.09;100.00
4415;BME280;2220;42.670;23.398;2022-12-17T10:33:55;93788.28;;;11.90;100.00
4415;BME280;2220;42.670;23.398;2022-12-17T10:36:44;93827.34;;;11.76;100.00
4415;BME280;2220;42.670;23.398;2022-12-17T10:39:29;93852.25;;;11.69;100.00
4415;BME280;2220;42.670;23.398;2022-12-17T10:42:25;93849.91;;;11.67;100.00
4415;BME280;2220;42.670;23.398;2022-12-17T10:48:24;93868.63;;;11.56;100.00
4415;BME280;2220;42.670;23.398;2022-12-17T10:51:29;93861.47;;;11.61;100.00
4415;BME280;2220;42.670;23.398;2022-12-17T10:57:32;93831.78;;;11.76;100.00
4415;BME280;2220;42.670;23.398;2022-12-17T11:03:01;93841.06;;;11.87;100.00
4415;BME280;2220;42.670;23.398;2022-12-17T11:05:48;93837.69;;;12.00;100.00
4415;BME280;2220;42.670;23.398;2022-12-17T11:08:33;93802.56;;;12.12;100.00
4415;BME280;2220;42.670;23.398;2022-12-17T11:11:17;93802.00;;;12.28;100.00
4415;BME280;2220;42.670;23.398;2022-12-17T11:14:02;93826.56;;;12.27;100.00
4415;BME280;2220;42.670;23.398;2022-12-17T11:16:51;93822.41;;;12.40;100.00
4415;BME280;2220;42.670;23.398;2022-12-17T11:19:45;93815.16;;;12.37;100.00
4415;BME280;2220;42.670;23.398;2022-12-17T11:22:38;93773.00;;;12.85;100.00
4415;BME280;2220;42.670;23.398;2022-12-17T11:25:47;93663.88;;;13.49;100.00
4415;BME280;2220;42.670;23.398;2022-12-17T11:28:34;93590.97;;;13.96;100.00
4415;BME280;2220;42.670;23.398;2022-12-17T11:31:45;93448.97;;;14.60;100.00
4415;BME280;2220;42.670;23.398;2022-12-17T11:34:45;93432.25;;;14.90;100.00
4415;BME280;2220;42.670;23.398;2022-12-17T11:40:55;93519.22;;;14.83;100.00
4415;BME280;2220;42.670;23.398;2022-12-17T11:47:27;93710.00;;;12.73;100.00
4415;BME280;2220;42.670;23.398;2022-12-17T11:50:25;93733.03;;;13.21;100.00
4415;BME280;2220;42.670;23.398;2022-12-17T11:56:21;93799.22;;;12.66;100.00
4415;BME280;2220;42.670;23.398;2022-12-17T12:22:56;93908.09;;;13.12;100.00
4415;BME280;2220;42.670;23.398;2022-12-17T12:26:11;93891.84;;;13.29;100.00
4415;BME280;2220;42.670;23.398;2022-12-17T12:29:07;93880.59;;;13.42;100.00
4415;BME280;2220;42.670;23.398;2022-12-17T12:35:14;93876.47;;;13.63;100.00
4415;BME280;2220;42.670;23.398;2022-12-17T12:37:59;93868.72;;;13.72;100.00
4415;BME280;2220;42.670;23.398;2022-12-17T12:40:53;93900.91;;;13.59;100.00
4415;BME280;2220;42.670;23.398;2022-12-17T12:43:46;93907.63;;;13.51;100.00
4415;BME280;2220;42.670;23.398;2022-12-17T12:46:45;93922.47;;;13.28;100.00
4415;BME280;2220;42.670;23.398;2022-12-17T12:52:21;93950.03;;;12.93;100.00
4415;BME280;2220;42.670;23.398;2022-12-17T12:55:06;93945.13;;;12.73;100.00
4415;BME280;2220;42.670;23.398;2022-12-17T12:57:59;93959.88;;;12.96;100.00
4415;BME280;2220;42.670;23.398;2022-12-17T13:11:41;93949.81;;;12.76;100.00
4415;BME280;2220;42.670;23.398;2022-12-17T13:14:28;93950.47;;;12.81;100.00
4415;BME280;2220;42.670;23.398;2022-12-17T13:17:00;93952.03;;;12.96;100.00
4415;BME280;2220;42.670;23.398;2022-12-17T13:19:36;93937.28;;;12.73;100.00
4415;BME280;2220;42.670;23.398;2022-12-17T13:24:45;93941.84;;;12.81;100.00
4415;BME280;2220;42.670;23.398;2022-12-17T13:27:31;93937.78;;;12.75;100.00
4415;BME280;2220;42.670;23.398;2022-12-17T13:41:20;93948.47;;;12.92;100.00
4415;BME280;2220;42.670;23.398;2022-12-17T13:46:24;93955.41;;;12.69;100.00
4415;BME280;2220;42.670;23.398;2022-12-17T13:48:59;93955.81;;;12.76;100.00
4415;BME280;2220;42.670;23.398;2022-12-17T13:51:25;93957.66;;;12.89;100.00
4415;BME280;2220;42.670;23.398;2022-12-17T13:53:56;93955.13;;;12.98;100.00
4415;BME280;2220;42.670;23.398;2022-12-17T13:56:24;93958.81;;;12.97;100.00
4415;BME280;2220;42.670;23.398;2022-12-17T13:58:51;93948.69;;;13.09;100.00
4415;BME280;2220;42.670;23.398;2022-12-17T14:01:17;93935.94;;;12.62;100.00
4415;BME280;2220;42.670;23.398;2022-12-17T14:03:52;93961.22;;;12.47;100.00
4415;BME280;2220;42.670;23.398;2022-12-17T14:06:18;93973.88;;;12.73;100.00
4415;BME280;2220;42.670;23.398;2022-12-17T14:08:47;93961.22;;;12.80;100.00
4415;BME280;2220;42.670;23.398;2022-12-17T14:11:14;93973.88;;;12.40;100.00
4415;BME280;2220;42.670;23.398;2022-12-17T14:13:58;93991.28;;;12.64;100.00
4415;BME280;2220;42.670;23.398;2022-12-17T14:16:24;93981.41;;;12.74;100.00
4415;BME280;2220;42.670;23.398;2022-12-17T14:18:54;93960.34;;;12.71;100.00
4415;BME280;2220;42.670;23.398;2022-12-17T14:21:23;93970.59;;;12.81;100.00
4415;BME280;2220;42.670;23.398;2022-12-17T14:23:50;93967.13;;;12.85;100.00
4415;BME280;2220;42.670;23.398;2022-12-17T14:26:17;93960.56;;;12.88;100.00
4415;BME280;2220;42.670;23.398;2022-12-17T14:28:47;93961.53;;;12.92;100.00
4415;BME280;2220;42.670;23.398;2022-12-17T14:33:39;93949.03;;;12.75;100.00
4415;BME280;2220;42.670;23.398;2022-12-17T14:36:13;93937.78;;;12.75;100.00
4415;BME280;2220;42.670;23.398;2022-12-17T14:41:17;93950.72;;;12.66;100.00
4415;BME280;2220;42.670;23.398;2022-12-17T14:44:02;93955.75;;;12.30;100.00
4415;BME280;2220;42.670;23.398;2022-12-17T14:46:29;93961.81;;;12.44;100.00
4415;BME280;2220;42.670;23.398;2022-12-17T14:48:57;93968.09;;;12.43;100.00
4415;BME280;2220;42.670;23.398;2022-12-17T14:51:40;93961.72;;;12.49;100.00
4415;BME280;2220;42.670;23.398;2022-12-17T14:56:38;93973.88;;;12.40;100.00
4415;BME280;2220;42.670;23.398;2022-12-17T14:59:04;93972.25;;;12.25;100.00
4415;BME280;2220;42.670;23.398;2022-12-17T15:01:30;93976.03;;;12.19;100.00
4415;BME280;2220;42.670;23.398;2022-12-17T15:03:56;93989.56;;;12.21;100.00
4415;BME280;2220;42.670;23.398;2022-12-17T15:06:21;94001.84;;;12.21;100.00
4415;BME280;2220;42.670;23.398;2022-12-17T15:08:48;93992.97;;;12.22;100.00
4415;BME280;2220;42.670;23.398;2022-12-17T15:11:17;94000.56;;;12.18;100.00
4415;BME280;2220;42.670;23.398;2022-12-17T15:13:44;94010.66;;;12.25;100.00
4415;BME280;2220;42.670;23.398;2022-12-17T15:16:09;93987.72;;;12.03;100.00
4415;BME280;2220;42.670;23.398;2022-12-17T15:18:35;94014.97;;;11.97;100.00
4415;BME280;2220;42.670;23.398;2022-12-17T15:21:01;94057.69;;;11.77;100.00
4415;BME280;2220;42.670;23.398;2022-12-17T15:23:27;94024.41;;;11.93;100.00
4415;BME280;2220;42.670;23.398;2022-12-17T15:25:53;94019.09;;;11.79;100.00
4415;BME280;2220;42.670;23.398;2022-12-17T15:28:20;94055.84;;;11.83;100.00
4415;BME280;2220;42.670;23.398;2022-12-17T15:30:47;94053.50;;;11.81;100.00
4415;BME280;2220;42.670;23.398;2022-12-17T15:33:13;94042.38;;;11.94;100.00
4415;BME280;2220;42.670;23.398;2022-12-17T15:35:39;94055.66;;;11.98;100.00
4415;BME280;2220;42.670;23.398;2022-12-17T15:38:06;94047.50;;;12.23;100.00
4415;BME280;2220;42.670;23.398;2022-12-17T15:40:32;94009.53;;;12.31;100.00
4415;BME280;2220;42.670;23.398;2022-12-17T15:42:57;94013.09;;;12.35;100.00
4415;BME280;2220;42.670;23.398;2022-12-17T15:48:09;93988.69;;;12.45;100.00
4415;BME280;2220;42.670;23.398;2022-12-17T15:50:35;93962.72;;;12.35;100.00
4415;BME280;2220;42.670;23.398;2022-12-17T15:53:01;93967.47;;;12.32;100.00
4415;BME280;2220;42.670;23.398;2022-12-17T15:55:26;93971.59;;;12.20;100.00
4415;BME280;2220;42.670;23.398;2022-12-17T15:57:52;93966.56;;;12.04;100.00
4415;BME280;2220;42.670;23.398;2022-12-17T16:00:17;93985.53;;;11.91;100.00
4415;BME280;2220;42.670;23.398;2022-12-17T16:02:43;93990.75;;;12.10;100.00
4415;BME280;2220;42.670;23.398;2022-12-17T16:05:08;93989.47;;;12.26;100.00
4415;BME280;2220;42.670;23.398;2022-12-17T16:07:34;94000.16;;;12.30;100.00
4415;BME280;2220;42.670;23.398;2022-12-17T16:10:01;93991.47;;;12.16;100.00
4415;BME280;2220;42.670;23.398;2022-12-17T16:12:26;93980.75;;;12.17;100.00